createdAt,value
2023-02-15T00:02:02.466Z,16.17
2023-02-15T00:04:47.732Z,14.07
2023-02-15T00:07:19.164Z,14.68
2023-02-15T00:09:49.261Z,13.43
2023-02-15T00:12:17.260Z,13.73
2023-02-15T00:14:44.036Z,15.88
2023-02-15T00:17:10.883Z,15.07
2023-02-15T00:19:37.739Z,15.25
2023-02-15T00:22:04.545Z,14.20
2023-02-15T00:24:31.288Z,13.60
2023-02-15T00:26:58.169Z,12.48
2023-02-15T00:29:24.942Z,13.45
2023-02-15T00:31:53.151Z,14.68
2023-02-15T00:34:22.643Z,12.75
2023-02-15T00:36:49.703Z,14.52
2023-02-15T00:39:17.988Z,12.77
2023-02-15T00:41:45.885Z,12.75
2023-02-15T00:44:13.576Z,13.18
2023-02-15T00:46:40.599Z,12.85
2023-02-15T00:49:07.411Z,13.18
2023-02-15T00:51:34.263Z,13.77
2023-02-15T00:54:01.091Z,13.10
2023-02-15T00:56:29.426Z,12.75
2023-02-15T00:58:58.765Z,11.43
2023-02-15T01:01:26.850Z,11.88
2023-02-15T01:03:53.912Z,13.23
2023-02-15T01:06:20.779Z,14.27
2023-02-15T01:08:47.738Z,13.88
2023-02-15T01:11:23.348Z,11.38
2023-02-15T01:13:58.461Z,12.77
2023-02-15T01:16:27.655Z,13.25
2023-02-15T01:18:55.728Z,13.02
2023-02-15T01:21:24.680Z,12.57
2023-02-15T01:23:51.521Z,14.32
2023-02-15T01:26:18.833Z,15.35
2023-02-15T01:28:46.108Z,13.57
2023-02-15T01:31:16.566Z,14.98
2023-02-15T01:33:43.966Z,11.30
2023-02-15T01:36:11.508Z,12.30
2023-02-15T01:38:38.357Z,16.20
2023-02-15T01:41:23.619Z,12.32
2023-02-15T01:43:57.362Z,13.18
2023-02-15T01:46:52.837Z,11.98
2023-02-15T01:49:24.837Z,12.30
2023-02-15T01:51:53.931Z,12.30
2023-02-15T01:54:26.212Z,12.80
2023-02-15T01:56:55.126Z,13.25
2023-02-15T01:59:24.475Z,14.60
2023-02-15T02:01:57.558Z,12.80
2023-02-15T02:04:45.190Z,12.13
2023-02-15T02:07:15.438Z,13.50
2023-02-15T02:09:42.406Z,13.70
2023-02-15T02:12:10.400Z,15.18
2023-02-15T02:14:38.631Z,17.13
2023-02-15T02:17:14.407Z,14.60
2023-02-15T02:20:04.755Z,13.25
2023-02-15T02:23:02.184Z,13.75
2023-02-15T02:26:00.898Z,13.10
2023-02-15T02:29:02.437Z,12.23
2023-02-15T02:31:45.541Z,13.52
2023-02-15T02:34:31.027Z,12.18
2023-02-15T02:37:05.133Z,12.32
2023-02-15T02:39:45.637Z,12.02
2023-02-15T02:42:21.654Z,13.05
2023-02-15T02:44:55.375Z,13.90
2023-02-15T02:47:30.005Z,11.32
2023-02-15T02:50:04.237Z,11.00
2023-02-15T02:52:33.973Z,12.10
2023-02-15T02:55:02.496Z,11.70
2023-02-15T02:57:31.486Z,13.45
2023-02-15T03:00:03.762Z,13.48
2023-02-15T03:05:07.252Z,11.85
2023-02-15T03:07:36.910Z,11.55
2023-02-15T03:10:06.152Z,13.80
2023-02-15T03:12:36.380Z,12.50
2023-02-15T03:15:17.065Z,11.57
2023-02-15T03:17:50.276Z,11.25
2023-02-15T03:20:30.638Z,14.48
2023-02-15T03:23:11.099Z,11.75
2023-02-15T03:25:42.976Z,15.23
2023-02-15T03:28:16.780Z,13.90
2023-02-15T03:30:46.963Z,12.23
2023-02-15T03:33:15.943Z,12.15
2023-02-15T03:36:05.328Z,11.43
2023-02-15T03:38:46.021Z,12.52
2023-02-15T03:41:15.674Z,18.25
2023-02-15T03:43:57.537Z,11.65
2023-02-15T03:46:48.215Z,11.75
2023-02-15T03:49:44.877Z,11.10
2023-02-15T03:52:14.098Z,14.32
2023-02-15T03:54:44.573Z,13.15
2023-02-15T03:57:40.551Z,17.90
2023-02-15T04:00:39.383Z,17.73
2023-02-15T04:03:32.239Z,14.48
2023-02-15T04:05:59.226Z,15.15
2023-02-15T04:08:46.069Z,15.70
2023-02-15T04:11:12.774Z,13.68
2023-02-15T04:13:39.929Z,13.90
2023-02-15T04:16:07.903Z,13.70
2023-02-15T04:18:57.572Z,13.45
2023-02-15T04:21:44.504Z,15.05
2023-02-15T04:24:30.484Z,14.52
2023-02-15T04:26:57.797Z,15.63
2023-02-15T04:29:26.020Z,15.70
2023-02-15T04:31:54.543Z,14.75
2023-02-15T04:34:21.952Z,19.40
2023-02-15T04:36:48.681Z,17.13
2023-02-15T04:39:16.532Z,17.73
2023-02-15T04:41:43.665Z,13.23
2023-02-15T04:44:11.201Z,14.57
2023-02-15T04:46:38.329Z,14.38
2023-02-15T04:49:05.079Z,12.75
2023-02-15T04:51:31.888Z,14.18
2023-02-15T04:53:58.685Z,11.77
2023-02-15T04:56:25.456Z,12.43
2023-02-15T04:58:52.209Z,13.48
2023-02-15T05:01:19.407Z,12.65
2023-02-15T05:03:46.164Z,11.98
2023-02-15T05:06:12.896Z,13.23
2023-02-15T05:08:39.645Z,13.27
2023-02-15T05:11:06.406Z,12.38
2023-02-15T05:13:33.249Z,12.10
2023-02-15T05:16:00.276Z,12.77
2023-02-15T05:18:27.388Z,11.60
2023-02-15T05:20:54.274Z,13.48
2023-02-15T05:23:21.074Z,13.18
2023-02-15T05:26:07.880Z,11.98
2023-02-15T05:28:36.303Z,11.68
2023-02-15T05:31:13.903Z,12.75
2023-02-15T05:33:41.543Z,12.48
2023-02-15T05:36:09.138Z,13.30
2023-02-15T05:38:42.273Z,14.40
2023-02-15T05:41:14.694Z,12.20
2023-02-15T05:43:41.431Z,12.95
2023-02-15T05:46:08.806Z,13.20
2023-02-15T05:48:36.030Z,13.73
2023-02-15T05:51:05.516Z,15.82
2023-02-15T05:53:34.466Z,12.48
2023-02-15T05:56:03.363Z,13.40
2023-02-15T05:58:38.803Z,12.45
2023-02-15T06:01:13.874Z,15.07
2023-02-15T06:03:41.438Z,12.13
2023-02-15T06:06:08.726Z,12.65
2023-02-15T06:08:36.849Z,12.60
2023-02-15T06:11:03.709Z,12.52
2023-02-15T06:13:31.415Z,12.15
2023-02-15T06:15:58.236Z,13.43
2023-02-15T06:18:25.219Z,12.90
2023-02-15T06:20:51.923Z,12.82
2023-02-15T06:23:18.776Z,12.10
2023-02-15T06:25:46.801Z,11.38
2023-02-15T06:28:14.105Z,11.75
2023-02-15T06:30:40.977Z,11.95
2023-02-15T06:33:07.793Z,12.10
2023-02-15T06:35:34.616Z,10.93
2023-02-15T06:38:01.362Z,11.48
2023-02-15T06:40:28.073Z,10.75
2023-02-15T06:42:54.834Z,11.25
2023-02-15T06:45:21.779Z,10.68
2023-02-15T06:47:48.505Z,10.35
2023-02-15T06:50:15.228Z,10.65
2023-02-15T06:52:42.034Z,11.95
2023-02-15T06:55:08.843Z,12.07
2023-02-15T06:57:35.616Z,10.60
2023-02-15T07:00:02.562Z,11.98
2023-02-15T07:02:29.905Z,11.32
2023-02-15T07:04:56.655Z,10.70
2023-02-15T07:07:23.441Z,12.10
2023-02-15T07:09:50.212Z,11.48
2023-02-15T07:12:35.473Z,10.60
2023-02-15T07:15:02.574Z,12.68
2023-02-15T07:17:37.103Z,10.95
2023-02-15T07:20:12.412Z,10.07
2023-02-15T07:22:39.508Z,10.77
2023-02-15T07:25:08.616Z,11.18
2023-02-15T07:27:35.646Z,10.68
2023-02-15T07:30:03.034Z,11.15
2023-02-15T07:32:31.232Z,11.02
2023-02-15T07:34:58.676Z,12.40
2023-02-15T07:37:25.601Z,14.93
2023-02-15T07:39:52.464Z,11.65
2023-02-15T07:42:20.787Z,11.65
2023-02-15T07:44:47.885Z,10.77
2023-02-15T07:47:14.717Z,10.05
2023-02-15T07:49:41.500Z,12.10
2023-02-15T07:52:08.280Z,11.63
2023-02-15T07:54:35.019Z,10.88
2023-02-15T07:57:02.726Z,10.93
2023-02-15T07:59:29.411Z,10.02
2023-02-15T08:01:57.526Z,10.70
2023-02-15T08:04:25.144Z,11.85
2023-02-15T08:06:55.290Z,11.45
2023-02-15T08:09:22.596Z,10.70
2023-02-15T08:11:49.734Z,10.85
2023-02-15T08:14:21.680Z,10.55
2023-02-15T08:16:53.445Z,12.73
2023-02-15T08:19:26.252Z,11.80
2023-02-15T08:21:58.300Z,12.27
2023-02-15T08:24:27.114Z,11.25
2023-02-15T08:26:54.490Z,11.73
2023-02-15T08:29:23.578Z,11.23
2023-02-15T08:31:53.632Z,13.00
2023-02-15T08:34:21.449Z,11.88
2023-02-15T08:36:48.299Z,11.30
2023-02-15T08:39:16.039Z,12.82
2023-02-15T08:41:44.926Z,11.60
2023-02-15T08:44:12.350Z,21.60
2023-02-15T08:46:42.495Z,11.95
2023-02-15T08:49:11.297Z,12.63
2023-02-15T08:51:39.576Z,13.07
2023-02-15T08:54:10.384Z,12.68
2023-02-15T08:56:39.309Z,11.45
2023-02-15T08:59:07.599Z,10.95
2023-02-15T09:01:35.785Z,11.73
2023-02-15T09:04:06.357Z,11.50
2023-02-15T09:06:33.736Z,12.10
2023-02-15T09:09:00.564Z,11.43
2023-02-15T09:11:33.709Z,10.43
2023-02-15T09:14:05.764Z,11.73
2023-02-15T09:16:34.656Z,11.95
2023-02-15T09:19:07.670Z,12.77
2023-02-15T09:21:36.745Z,11.57
2023-02-15T09:24:12.112Z,10.93
2023-02-15T09:26:41.876Z,11.65
2023-02-15T09:29:10.176Z,11.40
2023-02-15T09:31:49.786Z,11.57
2023-02-15T09:34:20.352Z,10.32
2023-02-15T09:36:48.093Z,11.95
2023-02-15T09:39:26.758Z,11.43
2023-02-15T09:41:56.388Z,12.88
2023-02-15T09:44:38.356Z,12.65
2023-02-15T09:47:08.770Z,14.60
2023-02-15T09:50:07.213Z,12.75
2023-02-15T09:52:58.857Z,12.32
2023-02-15T09:56:03.204Z,12.17
2023-02-15T09:58:54.647Z,12.50
2023-02-15T10:01:33.445Z,12.68
2023-02-15T10:04:16.912Z,13.90
2023-02-15T10:07:03.745Z,12.52
2023-02-15T10:09:54.548Z,14.27
2023-02-15T10:13:01.856Z,14.23
2023-02-15T10:15:53.081Z,12.68
2023-02-15T10:18:38.759Z,11.30
2023-02-15T10:21:30.806Z,13.48
2023-02-15T10:24:15.877Z,12.70
2023-02-15T10:26:46.371Z,13.68
2023-02-15T10:29:39.397Z,13.55
2023-02-15T10:32:25.918Z,14.25
2023-02-15T10:35:04.657Z,13.98
2023-02-15T10:37:56.236Z,12.68
2023-02-15T10:40:48.117Z,10.27
2023-02-15T10:43:26.409Z,12.27
2023-02-15T10:46:25.303Z,13.45
2023-02-15T10:49:01.665Z,12.43
2023-02-15T10:51:46.617Z,12.20
2023-02-15T10:54:43.845Z,13.77
2023-02-15T10:57:41.664Z,13.52
2023-02-15T11:00:23.502Z,13.55
2023-02-15T11:03:24.571Z,15.13
2023-02-15T11:06:03.559Z,15.27
2023-02-15T11:08:35.565Z,15.23
2023-02-15T11:11:10.574Z,14.98
2023-02-15T11:13:44.139Z,14.48
2023-02-15T11:16:37.791Z,14.50
2023-02-15T11:19:17.521Z,15.10
2023-02-15T11:21:50.837Z,14.63
2023-02-15T11:24:23.833Z,13.90
2023-02-15T11:27:13.816Z,15.43
2023-02-15T11:30:03.856Z,15.07
2023-02-15T11:32:39.751Z,15.40
2023-02-15T11:35:12.685Z,14.23
2023-02-15T11:37:42.391Z,14.50
2023-02-15T11:40:33.022Z,15.00
2023-02-15T11:43:14.652Z,14.23
2023-02-15T11:45:44.120Z,13.65
2023-02-15T11:48:13.514Z,14.75
2023-02-15T11:50:41.862Z,12.63
2023-02-15T11:53:18.772Z,12.23
2023-02-15T11:55:47.649Z,12.07
2023-02-15T11:58:55.621Z,13.68
2023-02-15T12:01:25.741Z,13.02
2023-02-15T12:04:26.431Z,12.63
2023-02-15T12:07:03.515Z,13.27
2023-02-15T12:09:39.774Z,11.90
2023-02-15T12:12:24.375Z,13.32
2023-02-15T12:14:53.840Z,11.65
2023-02-15T12:17:30.246Z,12.73
2023-02-15T12:20:01.764Z,12.43
2023-02-15T12:22:33.101Z,12.95
2023-02-15T12:25:03.098Z,13.00
2023-02-15T12:27:33.200Z,12.50
2023-02-15T12:30:03.235Z,12.13
2023-02-15T12:32:35.659Z,12.15
2023-02-15T12:35:15.426Z,12.63
2023-02-15T12:37:57.915Z,11.13
2023-02-15T12:40:31.624Z,11.52
2023-02-15T12:42:58.835Z,12.95
2023-02-15T12:45:31.515Z,11.68
2023-02-15T12:48:13.441Z,11.90
2023-02-15T12:50:42.222Z,11.07
2023-02-15T12:53:21.869Z,12.50
2023-02-15T12:55:58.957Z,11.50
2023-02-15T12:58:28.178Z,12.07
2023-02-15T13:01:10.507Z,12.15
2023-02-15T13:03:47.824Z,13.07
2023-02-15T13:06:14.585Z,12.20
2023-02-15T13:08:49.589Z,12.27
2023-02-15T13:11:31.323Z,11.85
2023-02-15T13:14:03.930Z,12.45
2023-02-15T13:16:37.690Z,11.75
2023-02-15T13:19:17.107Z,11.45
2023-02-15T13:21:49.475Z,12.90
2023-02-15T13:24:19.884Z,11.52
2023-02-15T13:26:48.327Z,12.57
2023-02-15T13:29:34.296Z,12.18
2023-02-15T13:32:31.156Z,11.20
2023-02-15T13:35:06.131Z,11.48
2023-02-15T13:37:45.441Z,10.55
2023-02-15T13:40:27.382Z,11.93
2023-02-15T13:42:59.571Z,12.27
2023-02-15T13:45:55.676Z,11.43
2023-02-15T13:48:51.454Z,12.45
2023-02-15T13:51:27.658Z,12.50
2023-02-15T13:54:10.712Z,10.60
2023-02-15T13:57:07.797Z,10.68
2023-02-15T13:59:46.724Z,13.07
2023-02-15T14:02:16.546Z,11.27
2023-02-15T14:05:23.222Z,11.93
2023-02-15T14:08:12.538Z,11.73
2023-02-15T14:10:51.655Z,11.82
2023-02-15T14:13:40.065Z,11.80
2023-02-15T14:16:13.061Z,12.63
2023-02-15T14:18:39.832Z,12.95
2023-02-15T14:21:22.796Z,12.20
2023-02-15T14:24:22.912Z,11.88
2023-02-15T14:27:09.744Z,12.43
2023-02-15T14:29:47.518Z,12.95
2023-02-15T14:32:21.800Z,10.95
2023-02-15T14:34:56.400Z,11.48
2023-02-15T14:37:45.778Z,11.98
2023-02-15T14:41:02.022Z,12.50
2023-02-15T14:43:47.480Z,11.82
2023-02-15T14:46:23.878Z,12.73
2023-02-15T14:48:57.324Z,11.90
2023-02-15T14:51:57.648Z,13.55
2023-02-15T14:54:24.389Z,12.48
2023-02-15T14:57:03.418Z,13.25
2023-02-15T14:59:36.021Z,12.85
2023-02-15T15:02:08.777Z,12.00
2023-02-15T15:04:43.720Z,11.85
2023-02-15T15:07:13.422Z,11.93
2023-02-15T15:09:43.117Z,12.27
2023-02-15T15:12:23.260Z,13.75
2023-02-15T15:14:51.077Z,11.95
2023-02-15T15:17:38.939Z,13.00
2023-02-15T15:20:14.431Z,12.68
2023-02-15T15:22:43.590Z,13.50
2023-02-15T15:25:31.078Z,11.68
2023-02-15T15:27:57.881Z,12.93
2023-02-15T15:30:24.666Z,14.23
2023-02-15T15:32:57.853Z,12.10
2023-02-15T15:36:03.717Z,12.93
2023-02-15T15:39:04.779Z,12.88
2023-02-15T15:42:06.837Z,12.73
2023-02-15T15:45:01.875Z,10.38
2023-02-15T15:48:07.764Z,13.27
2023-02-15T15:50:35.265Z,13.20
2023-02-15T15:53:04.273Z,12.30
2023-02-15T15:55:33.419Z,12.98
2023-02-15T15:58:09.821Z,12.30
2023-02-15T16:00:45.642Z,13.27
2023-02-15T16:03:26.711Z,14.20
2023-02-15T16:05:56.330Z,13.00
2023-02-15T16:08:41.044Z,12.70
2023-02-15T16:11:30.233Z,12.40
2023-02-15T16:13:57.278Z,13.27
2023-02-15T16:16:29.097Z,13.80
2023-02-15T16:19:01.180Z,12.77
2023-02-15T16:21:35.258Z,13.43
2023-02-15T16:24:23.651Z,14.10
2023-02-15T16:27:34.994Z,13.57
2023-02-15T16:30:20.629Z,15.60
2023-02-15T16:32:47.682Z,14.77
2023-02-15T16:35:17.525Z,15.75
2023-02-15T16:37:44.890Z,16.15
2023-02-15T16:40:33.733Z,14.25
2023-02-15T16:43:09.710Z,15.43
2023-02-15T16:45:39.224Z,16.23
2023-02-15T16:48:15.323Z,14.38
2023-02-15T16:50:52.391Z,16.70
2023-02-15T16:53:25.868Z,16.00
2023-02-15T16:55:56.134Z,16.83
2023-02-15T16:58:28.515Z,17.70
2023-02-15T17:01:00.884Z,16.92
2023-02-15T17:03:28.755Z,18.48
2023-02-15T17:06:00.901Z,18.70
2023-02-15T17:11:00.802Z,17.00
2023-02-15T17:13:28.873Z,15.82
2023-02-15T17:16:02.054Z,17.77
2023-02-15T17:18:34.097Z,17.88
2023-02-15T17:21:11.806Z,16.90
2023-02-15T17:23:45.862Z,19.25
2023-02-15T17:26:25.017Z,18.33
2023-02-15T17:29:21.266Z,19.05
2023-02-15T17:31:51.744Z,20.45
2023-02-15T17:34:42.062Z,20.25
2023-02-15T17:37:25.269Z,18.33
2023-02-15T17:39:52.113Z,18.63
2023-02-15T17:42:18.885Z,19.55
2023-02-15T17:44:45.693Z,18.80
2023-02-15T17:47:27.773Z,18.20
2023-02-15T17:49:54.945Z,21.85
2023-02-15T17:52:21.720Z,20.10
2023-02-15T17:55:06.884Z,20.45
2023-02-15T17:57:33.646Z,18.52
2023-02-15T18:00:18.992Z,21.27
2023-02-15T18:03:05.538Z,21.25
2023-02-15T18:05:51.042Z,22.35
2023-02-15T18:08:39.181Z,25.33
2023-02-15T18:11:24.577Z,23.80
2023-02-15T18:13:51.338Z,22.63
2023-02-15T18:16:24.545Z,23.80
2023-02-15T18:18:52.196Z,25.45
2023-02-15T18:21:20.463Z,25.38
2023-02-15T18:23:47.274Z,25.15
2023-02-15T18:26:22.409Z,29.92
2023-02-15T18:28:50.340Z,26.05
2023-02-15T18:31:19.110Z,28.42
2023-02-15T18:33:49.046Z,25.13
2023-02-15T18:36:28.139Z,24.23
2023-02-15T18:38:58.599Z,26.75
2023-02-15T18:41:25.449Z,25.38
2023-02-15T18:43:53.936Z,26.08
2023-02-15T18:46:21.233Z,24.33
2023-02-15T18:48:48.095Z,24.58
2023-02-15T18:51:23.559Z,25.15
2023-02-15T18:53:53.873Z,24.50
2023-02-15T18:56:23.000Z,23.27
2023-02-15T18:58:49.916Z,23.08
2023-02-15T19:01:19.839Z,23.23
2023-02-15T19:03:51.626Z,21.25
2023-02-15T19:06:24.914Z,26.00
2023-02-15T19:08:53.085Z,25.48
2023-02-15T19:11:23.272Z,29.77
2023-02-15T19:13:52.094Z,27.67
2023-02-15T19:16:27.479Z,29.17
2023-02-15T19:18:54.528Z,31.35
2023-02-15T19:21:21.463Z,30.02
2023-02-15T19:23:58.127Z,29.02
2023-02-15T19:26:36.297Z,28.25
2023-02-15T19:29:13.537Z,26.00
2023-02-15T19:31:40.666Z,24.67
2023-02-15T19:34:15.772Z,24.23
2023-02-15T19:36:44.847Z,24.73
2023-02-15T19:39:29.909Z,23.70
2023-02-15T19:41:56.916Z,26.55
2023-02-15T19:44:23.738Z,28.77
2023-02-15T19:46:50.536Z,30.08
2023-02-15T19:49:17.366Z,29.58
2023-02-15T19:51:44.320Z,27.60
2023-02-15T19:54:33.131Z,23.95
2023-02-15T19:57:00.159Z,23.25
2023-02-15T19:59:33.012Z,26.55
2023-02-15T20:02:00.321Z,24.70
2023-02-15T20:04:27.595Z,23.95
2023-02-15T20:07:01.191Z,22.92
2023-02-15T20:09:40.851Z,21.70
2023-02-15T20:12:29.619Z,21.80
2023-02-15T20:14:58.184Z,17.90
2023-02-15T20:17:24.953Z,21.20
2023-02-15T20:19:51.826Z,19.13
2023-02-15T20:22:27.401Z,19.25
2023-02-15T20:24:56.256Z,21.27
2023-02-15T20:27:24.061Z,19.27
2023-02-15T20:29:50.942Z,21.75
2023-02-15T20:32:17.895Z,20.08
2023-02-15T20:34:44.706Z,20.38
2023-02-15T20:37:26.340Z,19.02
2023-02-15T20:39:53.220Z,19.88
2023-02-15T20:42:19.984Z,18.60
2023-02-15T20:44:46.901Z,20.40
2023-02-15T20:47:13.660Z,20.98
2023-02-15T20:49:40.418Z,25.02
2023-02-15T20:52:19.646Z,25.98
2023-02-15T20:54:46.574Z,20.40
2023-02-15T20:57:13.592Z,20.92
2023-02-15T20:59:41.288Z,20.33
2023-02-15T21:02:23.913Z,20.35
2023-02-15T21:04:51.276Z,19.90
2023-02-15T21:07:20.522Z,20.60
2023-02-15T21:09:48.359Z,20.35
2023-02-15T21:12:17.934Z,20.30
2023-02-15T21:14:45.321Z,22.25
2023-02-15T21:17:14.004Z,22.90
2023-02-15T21:19:41.520Z,21.92
2023-02-15T21:22:13.423Z,22.98
2023-02-15T21:24:47.819Z,23.35
2023-02-15T21:27:15.365Z,20.63
2023-02-15T21:29:42.234Z,21.20
2023-02-15T21:32:10.555Z,21.70
2023-02-15T21:34:37.423Z,22.75
2023-02-15T21:37:05.229Z,20.52
2023-02-15T21:39:35.663Z,23.45
2023-02-15T21:42:21.765Z,22.88
2023-02-15T21:45:07.302Z,21.70
2023-02-15T21:47:52.290Z,23.65
2023-02-15T21:50:39.193Z,23.42
2023-02-15T21:53:08.618Z,21.55
2023-02-15T21:55:35.669Z,22.52
2023-02-15T21:58:02.764Z,20.25
2023-02-15T22:00:30.754Z,20.83
2023-02-15T22:02:59.751Z,21.55
2023-02-15T22:05:33.272Z,26.83
2023-02-15T22:08:00.512Z,28.10
2023-02-15T22:10:32.805Z,27.42
2023-02-15T22:13:03.598Z,28.42
2023-02-15T22:15:37.679Z,25.90
2023-02-15T22:18:05.644Z,24.38
2023-02-15T22:20:32.588Z,22.58
2023-02-15T22:22:59.311Z,23.10
2023-02-15T22:25:26.696Z,21.58
2023-02-15T22:27:54.727Z,22.02
2023-02-15T22:30:29.089Z,20.75
2023-02-15T22:32:57.574Z,21.02
2023-02-15T22:35:32.927Z,22.65
2023-02-15T22:38:00.313Z,22.58
2023-02-15T22:40:33.356Z,23.50
2023-02-15T22:43:02.743Z,21.42
2023-02-15T22:45:32.552Z,22.05
2023-02-15T22:48:00.646Z,20.55
2023-02-15T22:50:30.287Z,21.10
2023-02-15T22:53:02.066Z,21.90
2023-02-15T22:55:33.619Z,21.77
2023-02-15T22:58:01.094Z,21.73
2023-02-15T23:00:32.474Z,24.92
2023-02-15T23:02:59.406Z,23.67
2023-02-15T23:05:29.062Z,23.13
2023-02-15T23:07:56.372Z,21.77
2023-02-15T23:10:25.263Z,22.92
2023-02-15T23:13:18.311Z,21.55
2023-02-15T23:15:54.462Z,21.83
2023-02-15T23:18:27.945Z,21.73
2023-02-15T23:20:56.514Z,21.15
2023-02-15T23:23:34.743Z,21.38
2023-02-15T23:26:04.314Z,21.40
2023-02-15T23:28:35.925Z,20.08
2023-02-15T23:31:06.387Z,19.23
2023-02-15T23:33:35.010Z,21.60
2023-02-15T23:36:01.883Z,23.95
2023-02-15T23:38:30.726Z,26.95
2023-02-15T23:41:19.557Z,26.35
2023-02-15T23:43:50.128Z,24.50
2023-02-15T23:46:48.404Z,25.67
2023-02-15T23:49:18.015Z,24.00
2023-02-15T23:51:46.236Z,23.58
2023-02-15T23:54:14.603Z,20.25
2023-02-15T23:56:42.958Z,21.55
2023-02-15T23:59:19.275Z,20.50
